Time;durP1;ratioP1;P1;durP2;ratioP2;P2;SDS_P1;SDS_P2;PMS_P1;PMS_P2;Temp;Humidity;BMP_temperature;BMP_pressure;BME280_temperature;BME280_humidity;BME280_pressure;Samples;Min_cycle;Max_cycle;Signal;HPM_P1;HPM_P2
2024/04/30 00:00:14;;;;;;;0.10;0.10;;;;;;;-145.06;99.43;52681.53;11313218;26;20227;-70
2024/04/30 00:05:14;;;;;;;0.10;0.10;;;;;;;-145.06;98.43;52679.50;11324292;26;20224;-70
2024/04/30 00:10:14;;;;;;;0.10;0.10;;;;;;;-145.06;96.77;52677.47;11331958;26;20013;-70
2024/04/30 00:15:15;;;;;;;0.00;0.00;;;;;;;-145.06;90.66;52722.03;11324001;26;20013;-70
2024/04/30 00:20:15;;;;;;;0.00;0.00;;;;;;;-145.06;91.10;52685.56;11329397;26;20006;-70
2024/04/30 00:25:16;;;;;;;0.10;0.10;;;;;;;-145.06;89.91;52685.56;11324471;26;20443;-70
2024/04/30 00:30:17;;;;;;;0.10;0.10;;;;;;;-145.06;93.64;52669.38;11324710;26;20012;-69
2024/04/30 00:35:17;;;;;;;0.10;0.10;;;;;;;-145.06;90.42;52677.47;11322708;26;20017;-70
2024/04/30 00:40:17;;;;;;;0.10;0.10;;;;;;;-145.06;88.96;52691.66;11330407;26;20246;-69
2024/04/30 00:45:18;;;;;;;0.10;0.10;;;;;;;-145.06;90.30;52693.69;11327872;26;20452;-70
2024/04/30 00:50:18;;;;;;;0.10;0.10;;;;;;;-145.06;89.55;52701.78;11324780;26;20006;-69
2024/04/30 00:55:18;;;;;;;0.10;0.10;;;;;;;-145.06;88.13;52724.03;11319560;26;19998;-70
2024/04/30 01:00:19;;;;;;;0.00;0.00;;;;;;;-145.06;86.80;52722.03;11322670;26;19994;-69
2024/04/30 01:05:19;;;;;;;0.00;0.00;;;;;;;-145.06;86.59;52738.22;11329038;26;19994;-70
2024/04/30 01:10:19;;;;;;;0.10;0.10;;;;;;;-145.06;86.37;52713.91;11324285;26;20460;-70
2024/04/30 01:15:20;;;;;;;0.10;0.10;;;;;;;-145.06;86.10;52732.13;11314743;26;20563;-70
2024/04/30 01:20:20;;;;;;;0.10;0.10;;;;;;;-145.06;82.35;52754.41;11323754;26;20051;-70
2024/04/30 01:25:20;;;;;;;0.10;0.10;;;;;;;-145.06;81.96;52738.22;11330528;26;19997;-70
2024/04/30 01:30:21;;;;;;;0.10;0.10;;;;;;;-145.06;82.63;52762.50;11325045;26;19998;-69
2024/04/30 01:35:21;;;;;;;0.10;0.10;;;;;;;-145.06;84.10;52742.25;11319194;26;20339;-69
2024/04/30 01:40:21;;;;;;;0.10;0.10;;;;;;;-145.06;82.89;52770.59;11324097;26;20070;-70
2024/04/30 01:45:21;;;;;;;0.10;0.10;;;;;;;-145.06;82.05;52764.53;11319477;26;20026;-70
2024/04/30 01:50:22;;;;;;;0.10;0.10;;;;;;;-145.06;80.50;52772.63;11319865;26;20005;-69
2024/04/30 01:55:22;;;;;;;0.10;0.10;;;;;;;-145.06;80.75;52772.63;11321774;26;20415;-70
2024/04/30 02:00:22;;;;;;;0.00;0.00;;;;;;;-145.06;80.72;52762.50;11338061;26;20005;-71
2024/04/30 02:05:22;;;;;;;0.10;0.10;;;;;;;-145.06;81.98;52794.91;11325460;26;20073;-70
2024/04/30 02:10:23;;;;;;;0.00;0.00;;;;;;;-145.06;83.20;52768.59;11313927;26;19994;-70
2024/04/30 02:15:23;;;;;;;0.10;0.10;;;;;;;-145.06;84.00;52758.47;11319737;26;20479;-70
2024/04/30 02:20:24;;;;;;;0.10;0.10;;;;;;;-145.06;83.52;52807.06;11311627;26;20350;-70
2024/04/30 02:25:24;;;;;;;0.10;0.10;;;;;;;-145.06;84.88;52796.94;11305430;26;19994;-70
2024/04/30 02:35:43;;;;;;;0.10;0.10;;;;;;;-145.06;85.55;52798.94;11317494;26;20003;-70
2024/04/30 02:40:44;;;;;;;0.10;0.10;;;;;;;-145.06;87.07;52790.84;11324405;26;20002;-71
2024/04/30 02:45:44;;;;;;;0.10;0.10;;;;;;;-145.06;87.70;52800.97;11315674;26;20002;-70
2024/04/30 02:50:44;;;;;;;0.10;0.10;;;;;;;-145.06;88.86;52800.97;11328687;26;20027;-70
2024/04/30 02:55:45;;;;;;;0.00;0.00;;;;;;;-145.06;89.27;52786.81;11321477;26;20431;-70
2024/04/30 03:00:45;;;;;;;0.10;0.10;;;;;;;-145.06;89.06;52811.09;11322311;26;20026;-70
2024/04/30 03:05:45;;;;;;;0.10;0.10;;;;;;;-145.06;92.26;52742.25;11319112;26;20347;-70
2024/04/30 03:10:46;;;;;;;0.10;0.10;;;;;;;-145.06;94.10;52803.00;11320004;26;20444;-70
2024/04/30 03:15:46;;;;;;;0.10;0.10;;;;;;;-145.06;95.60;52800.97;11325922;26;20410;-70
2024/04/30 03:20:46;;;;;;;0.10;0.10;;;;;;;-145.06;94.24;52794.91;11315833;26;20016;-70
2024/04/30 03:25:47;;;;;;;0.10;0.10;;;;;;;-145.06;93.99;52782.75;11307316;26;20497;-70
2024/04/30 03:30:47;;;;;;;0.10;0.10;;;;;;;-145.06;93.80;52792.88;11314323;26;20364;-69
2024/04/30 03:35:47;;;;;;;0.10;0.10;;;;;;;-145.06;94.51;52807.06;11295898;26;20231;-70
2024/04/30 03:40:48;;;;;;;0.10;0.10;;;;;;;-145.06;96.07;52766.56;11328245;26;20002;-70
2024/04/30 03:45:48;;;;;;;0.10;0.10;;;;;;;-145.06;95.61;52786.81;11325553;26;20448;-70
2024/04/30 03:50:53;;;;;;;0.10;0.10;;;;;;;-145.06;96.00;52770.59;11327529;26;20006;-69
2024/04/30 03:55:54;;;;;;;0.10;0.10;;;;;;;-145.06;96.67;52778.72;11308685;26;20003;-70
2024/04/30 04:00:55;;;;;;;0.10;0.10;;;;;;;-145.06;96.60;52774.66;11260967;26;19995;-70
2024/04/30 04:05:55;;;;;;;0.10;0.10;;;;;;;-145.06;95.61;52790.84;11296994;26;20006;-70
2024/04/30 04:16:15;;;;;;;0.10;0.10;;;;;;;-145.06;94.78;52774.66;11310151;26;20037;-70
2024/04/30 04:21:15;;;;;;;0.10;0.10;;;;;;;-145.06;94.37;52754.41;11314332;26;20002;-69
2024/04/30 04:26:15;;;;;;;0.10;0.10;;;;;;;-145.06;93.34;52766.56;11320264;26;20333;-69
2024/04/30 04:31:16;;;;;;;0.10;0.10;;;;;;;-145.06;94.11;52754.41;11297221;26;20164;-69
2024/04/30 04:36:16;;;;;;;0.10;0.10;;;;;;;-145.06;92.74;52774.66;11325470;26;20429;-70
2024/04/30 04:41:16;;;;;;;0.10;0.10;;;;;;;-145.06;92.02;52782.75;11303163;26;19998;-70
2024/04/30 04:46:17;;;;;;;0.10;0.10;;;;;;;-145.06;91.00;52772.63;11304559;26;20114;-70
2024/04/30 04:51:17;;;;;;;0.10;0.10;;;;;;;-145.06;90.25;52776.69;11299794;26;20014;-70
2024/04/30 04:56:18;;;;;;;0.10;0.10;;;;;;;-145.06;89.93;52766.56;11320910;26;20009;-70
2024/04/30 05:01:19;;;;;;;0.00;0.00;;;;;;;-145.06;88.81;52770.59;11321948;26;20343;-70
2024/04/30 05:06:19;;;;;;;0.10;0.10;;;;;;;-145.06;88.55;52744.28;11313793;26;20186;-70
2024/04/30 05:11:20;;;;;;;0.10;0.10;;;;;;;-145.06;87.73;52750.38;11301663;26;20122;-71
2024/04/30 05:16:20;;;;;;;0.10;0.10;;;;;;;-145.06;85.04;52703.78;11299985;26;20002;-71
2024/04/30 05:21:20;;;;;;;0.00;0.00;;;;;;;-145.06;81.38;52679.50;11318512;26;20010;-71
2024/04/30 05:26:21;;;;;;;0.10;0.10;;;;;;;-145.06;77.37;52701.78;11310468;26;20002;-71
2024/04/30 05:31:21;;;;;;;0.00;0.00;;;;;;;-145.06;75.83;52685.56;11314312;26;20013;-70
2024/04/30 05:36:21;;;;;;;0.10;0.10;;;;;;;-145.06;75.25;52711.91;11315065;26;19999;-71
2024/04/30 05:41:22;;;;;;;0.10;0.10;;;;;;;-145.06;74.75;52722.03;11315459;26;20081;-70
2024/04/30 05:46:22;;;;;;;0.00;0.00;;;;;;;-145.06;75.99;52663.31;11297441;26;19998;-70
2024/04/30 05:51:22;;;;;;;0.00;0.00;;;;;;;-145.06;72.92;52657.22;11313639;26;20010;-70
2024/04/30 05:56:22;;;;;;;0.10;0.10;;;;;;;-145.06;71.78;52576.25;11314046;26;20412;-69
2024/04/30 06:01:23;;;;;;;0.10;0.10;;;;;;;-145.06;69.95;52659.25;11298991;26;20546;-70
2024/04/30 06:06:23;;;;;;;0.10;0.10;;;;;;;-145.06;69.79;52673.44;11313344;26;20022;-70
2024/04/30 06:11:24;;;;;;;0.00;0.00;;;;;;;-145.06;68.20;52637.00;11316889;26;20012;-70
2024/04/30 06:16:24;;;;;;;0.00;0.00;;;;;;;-145.06;65.21;52637.00;11299117;26;20074;-69
2024/04/30 06:21:26;;;;;;;0.10;0.10;;;;;;;-145.06;63.13;52574.22;11314483;26;20017;-70
2024/04/30 06:26:27;;;;;;;0.10;0.10;;;;;;;-145.06;61.89;52598.53;11308427;26;20050;-69
2024/04/30 06:31:27;;;;;;;0.00;0.00;;;;;;;-145.06;59.11;52507.41;11294517;26;20336;-70
2024/04/30 06:36:28;;;;;;;0.00;0.00;;;;;;;-145.06;55.83;52466.94;11313816;26;20013;-69
2024/04/30 06:41:28;;;;;;;0.10;0.10;;;;;;;-145.06;52.91;52466.94;11309362;26;20028;-69
2024/04/30 06:46:29;;;;;;;0.00;0.00;;;;;;;-145.06;51.54;52503.38;11320603;26;20058;-69
2024/04/30 06:51:29;;;;;;;0.10;0.10;;;;;;;-145.06;51.45;52428.47;11312688;26;22092;-69
2024/04/30 06:56:29;;;;;;;0.10;0.10;;;;;;;-145.06;48.85;52477.06;11306201;26;20014;-69
2024/04/30 07:01:29;;;;;;;0.10;0.10;;;;;;;-145.06;48.17;52479.06;11317030;26;20084;-69
2024/04/30 07:06:30;;;;;;;0.10;0.10;;;;;;;-145.06;46.53;52564.09;11320192;26;20146;-70
2024/04/30 07:11:30;;;;;;;0.00;0.00;;;;;;;-145.06;47.26;52485.16;11318626;26;20005;-70
2024/04/30 07:16:37;;;;;;;0.10;0.10;;;;;;;-145.06;47.00;52479.06;11291252;26;20081;-70
2024/04/30 07:21:38;;;;;;;0.00;0.00;;;;;;;-145.06;45.50;52584.34;11294822;26;19999;-69
2024/04/30 07:26:38;;;;;;;0.00;0.00;;;;;;;-145.06;45.79;52553.97;11321640;26;20021;-69
2024/04/30 07:31:38;;;;;;;0.00;0.00;;;;;;;-145.06;45.59;52576.25;11322661;26;20009;-69
2024/04/30 07:36:39;;;;;;;0.10;0.10;;;;;;;-145.06;46.42;52590.44;11303775;26;19998;-69
2024/04/30 07:41:39;;;;;;;0.10;0.10;;;;;;;-145.06;45.74;52551.97;11307566;26;20014;-69
2024/04/30 07:46:39;;;;;;;0.10;0.10;;;;;;;-145.06;46.15;52576.25;11305520;26;20378;-69
2024/04/30 07:51:40;;;;;;;0.10;0.10;;;;;;;-145.06;45.04;52568.16;11309728;26;19999;-69
2024/04/30 07:56:40;;;;;;;0.10;0.10;;;;;;;-145.06;46.25;52485.16;11300550;26;19998;-70
2024/04/30 08:01:40;;;;;;;0.10;0.10;;;;;;;-145.06;45.71;52543.84;11301590;26;20405;-69
2024/04/30 08:06:41;;;;;;;0.10;0.10;;;;;;;-145.06;45.94;52517.53;11300556;26;20026;-69
2024/04/30 08:11:43;;;;;;;0.00;0.00;;;;;;;-145.06;46.72;52499.31;11313599;26;19998;-69
2024/04/30 08:16:43;;;;;;;0.00;0.00;;;;;;;-145.06;46.46;52564.09;11316220;26;20219;-69
2024/04/30 08:21:43;;;;;;;0.10;0.10;;;;;;;-145.06;46.92;52525.63;11322013;26;20705;-69
2024/04/30 08:26:45;;;;;;;0.10;0.10;;;;;;;-145.06;49.55;52556.00;11307145;26;20017;-69
2024/04/30 08:31:45;;;;;;;0.10;0.10;;;;;;;-145.06;51.73;52525.63;11318315;26;20003;-69
2024/04/30 08:36:45;;;;;;;0.00;0.00;;;;;;;-145.06;52.43;52590.44;11316989;26;20013;-69
2024/04/30 08:41:48;;;;;;;0.03;0.03;;;;;;;-145.06;52.94;52630.91;11311410;26;20010;-69
2024/04/30 08:46:50;;;;;;;0.10;0.10;;;;;;;-145.06;53.14;52558.03;11302588;26;20015;-69
2024/04/30 08:51:51;;;;;;;0.10;0.10;;;;;;;-145.06;53.29;52553.97;11317512;26;20028;-69
2024/04/30 08:56:51;;;;;;;0.00;0.00;;;;;;;-145.06;52.83;52572.19;11313688;26;19995;-70
2024/04/30 09:01:53;;;;;;;0.10;0.10;;;;;;;-145.06;54.28;52483.13;11317222;26;20418;-70
2024/04/30 09:06:53;;;;;;;0.00;0.00;;;;;;;-145.06;52.59;52543.84;11318151;26;20071;-69
2024/04/30 09:11:54;;;;;;;0.00;0.00;;;;;;;-145.06;53.91;52632.94;11313431;26;20351;-70
2024/04/30 09:16:55;;;;;;;0.00;0.00;;;;;;;-145.06;58.03;52628.88;11310867;26;19999;-69
2024/04/30 09:22:21;;;;;;;0.00;0.00;;;;;;;-145.06;61.96;52578.28;11305941;26;20071;-69
2024/04/30 09:27:30;;;;;;;0.00;0.00;;;;;;;-145.06;60.86;52452.75;11315386;26;20074;-69
2024/04/30 09:32:30;;;;;;;0.10;0.10;;;;;;;-145.06;59.11;52458.84;11296952;26;20020;-70
2024/04/30 09:37:32;;;;;;;0.00;0.00;;;;;;;-145.06;55.56;52487.19;11312343;26;19999;-69
2024/04/30 09:42:33;;;;;;;0.10;0.10;;;;;;;-145.06;56.39;52460.84;11309872;26;20015;-69
2024/04/30 09:47:35;;;;;;;0.00;0.00;;;;;;;-145.06;57.46;52377.84;11297461;26;19994;-69
2024/04/30 09:52:37;;;;;;;0.10;0.10;;;;;;;-145.06;55.72;52406.19;11325711;26;20347;-69
2024/04/30 09:57:40;;;;;;;0.00;0.00;;;;;;;-145.06;55.21;52367.75;11317848;26;20049;-69
2024/04/30 10:02:48;;;;;;;0.03;0.03;;;;;;;-145.06;57.61;52339.41;11304101;26;20361;-69
2024/04/30 10:07:49;;;;;;;0.00;0.00;;;;;;;-145.06;56.74;52373.81;11305395;26;20125;-69
2024/04/30 10:12:49;;;;;;;0.10;0.10;;;;;;;-145.06;58.17;52400.13;11311755;26;20006;-69
2024/04/30 10:17:49;;;;;;;0.10;0.10;;;;;;;-145.06;56.56;52422.41;11308460;26;20367;-70
2024/04/30 10:22:50;;;;;;;0.00;0.00;;;;;;;-145.06;55.58;52477.06;11319916;26;20011;-69
2024/04/30 10:28:02;;;;;;;0.00;0.00;;;;;;;-145.06;59.24;52446.69;11295469;26;20002;-69
2024/04/30 10:33:03;;;;;;;0.10;0.10;;;;;;;-145.06;61.52;52402.16;11320328;26;20002;-69
2024/04/30 10:38:03;;;;;;;0.10;0.10;;;;;;;-145.06;58.64;52377.84;11301325;25;20360;-70
2024/04/30 10:43:04;;;;;;;0.00;0.00;;;;;;;-145.06;55.89;52432.53;11305015;26;20017;-69
2024/04/30 10:48:08;;;;;;;0.00;0.00;;;;;;;-145.06;60.31;52383.94;11312890;26;20003;-69
2024/04/30 10:53:12;;;;;;;0.10;0.10;;;;;;;-145.06;61.01;52385.97;11312741;26;20002;-69
2024/04/30 10:58:12;;;;;;;0.10;0.10;;;;;;;-145.06;62.84;52341.41;11296951;26;19999;-69
2024/04/30 11:03:21;;;;;;;0.00;0.00;;;;;;;-145.06;62.73;52329.28;11307033;26;19995;-69
2024/04/30 11:08:24;;;;;;;0.00;0.00;;;;;;;-145.06;60.12;52294.84;11287970;26;19999;-69
2024/04/30 11:13:25;;;;;;;0.10;0.10;;;;;;;-145.06;61.94;52246.28;11313853;26;20003;-70
2024/04/30 11:18:27;;;;;;;0.00;0.00;;;;;;;-145.06;59.72;52232.09;11297890;26;20030;-69
2024/04/30 11:23:27;;;;;;;0.00;0.00;;;;;;;-145.06;61.26;52236.16;11326017;26;20006;-70
2024/04/30 11:28:27;;;;;;;0.00;0.00;;;;;;;-145.06;62.12;52276.63;11315211;26;19998;-70
2024/04/30 11:33:28;;;;;;;0.00;0.00;;;;;;;-145.06;61.37;52321.19;11309510;26;20013;-70
2024/04/30 11:38:28;;;;;;;0.00;0.00;;;;;;;-145.06;64.06;52288.78;11309365;26;20006;-69
2024/04/30 11:43:28;;;;;;;0.00;0.00;;;;;;;-145.06;65.46;52270.56;11322551;26;19999;-70
2024/04/30 11:48:32;;;;;;;0.10;0.10;;;;;;;-145.06;62.72;52284.75;11319397;26;20010;-70
2024/04/30 11:53:33;;;;;;;0.05;0.05;;;;;;;-145.06;64.94;52254.38;11319744;26;20007;-69
2024/04/30 11:58:34;;;;;;;0.00;0.00;;;;;;;-145.06;63.51;52274.63;11312846;26;20010;-69
2024/04/30 12:03:34;;;;;;;0.00;0.00;;;;;;;-145.06;64.72;52260.44;11325991;26;20476;-69
2024/04/30 12:08:37;;;;;;;0.00;0.00;;;;;;;-145.06;59.67;52317.13;11334513;26;20075;-69
2024/04/30 12:13:37;;;;;;;0.03;0.03;;;;;;;-145.06;64.51;52226.03;11308732;26;21715;-69
2024/04/30 12:18:38;;;;;;;0.00;0.00;;;;;;;-145.06;62.47;52256.41;11324442;26;20006;-69
2024/04/30 12:23:38;;;;;;;0.00;0.00;;;;;;;-145.06;64.68;52195.66;11328953;26;20283;-69
2024/04/30 12:28:38;;;;;;;0.00;0.00;;;;;;;-145.06;63.18;52169.34;11317695;26;19998;-70
2024/04/30 12:33:38;;;;;;;0.10;0.10;;;;;;;-145.06;62.35;52157.22;11327812;26;20120;-69
2024/04/30 12:38:39;;;;;;;0.00;0.00;;;;;;;-145.06;62.23;52191.63;11313405;26;20014;-70
2024/04/30 12:43:39;;;;;;;0.00;0.00;;;;;;;-145.06;62.57;52122.78;11291223;26;20002;-70
2024/04/30 12:48:39;;;;;;;0.00;0.00;;;;;;;-145.06;63.76;52149.09;11322500;26;20302;-68
2024/04/30 12:53:40;;;;;;;0.00;0.00;;;;;;;-145.06;64.67;52157.22;11309521;26;20394;-69
2024/04/30 12:58:40;;;;;;;0.10;0.10;;;;;;;-145.06;64.46;52149.09;11320196;26;20328;-70
2024/04/30 13:03:40;;;;;;;0.00;0.00;;;;;;;-145.06;62.98;52155.19;11310507;26;20009;-70
2024/04/30 13:08:40;;;;;;;0.00;0.00;;;;;;;-145.06;63.59;52143.03;11309919;26;20448;-70
2024/04/30 13:13:41;;;;;;;0.10;0.10;;;;;;;-145.06;62.30;52163.28;11311218;26;20021;-70
2024/04/30 13:18:41;;;;;;;0.10;0.10;;;;;;;-145.06;65.73;52056.00;11306067;26;20379;-70
2024/04/30 13:23:42;;;;;;;0.00;0.00;;;;;;;-145.06;63.27;52051.94;11307222;26;20013;-70
2024/04/30 13:28:42;;;;;;;0.03;0.03;;;;;;;-145.06;62.50;51973.00;11308789;26;20182;-70
2024/04/30 13:33:42;;;;;;;0.00;0.00;;;;;;;-145.06;59.57;52041.81;11294693;26;20003;-70
2024/04/30 13:38:42;;;;;;;0.00;0.00;;;;;;;-145.06;63.37;51952.75;11311287;26;20464;-70
2024/04/30 13:43:43;;;;;;;0.00;0.00;;;;;;;-145.06;62.57;52041.81;11309664;26;19994;-70
2024/04/30 13:48:43;;;;;;;0.10;0.10;;;;;;;-145.06;64.33;52110.66;11293802;26;20007;-70
2024/04/30 13:53:43;;;;;;;0.00;0.00;;;;;;;-145.06;64.43;52108.63;11321087;26;20082;-70
2024/04/30 13:58:44;;;;;;;0.00;0.00;;;;;;;-145.06;63.92;52096.47;11318217;26;20013;-70
2024/04/30 14:03:44;;;;;;;0.00;0.00;;;;;;;-145.06;62.35;52108.63;11309808;26;20460;-70
2024/04/30 14:08:44;;;;;;;0.00;0.00;;;;;;;-145.06;62.78;52161.25;11321800;26;20041;-70
2024/04/30 14:13:44;;;;;;;0.00;0.00;;;;;;;-145.06;64.69;52145.06;11316092;26;19998;-70
2024/04/30 14:18:45;;;;;;;0.00;0.00;;;;;;;-145.06;63.80;52139.00;11308422;26;20022;-70
2024/04/30 14:23:45;;;;;;;0.00;0.00;;;;;;;-145.06;68.33;52045.88;11310239;26;20010;-71
2024/04/30 14:28:45;;;;;;;0.00;0.00;;;;;;;-145.06;65.25;52029.69;11328609;26;20015;-71
2024/04/30 14:33:46;;;;;;;0.00;0.00;;;;;;;-145.06;66.14;52033.72;11305195;26;20042;-71
2024/04/30 14:38:46;;;;;;;0.00;0.00;;;;;;;-145.06;64.08;52078.25;11314987;26;20006;-70
2024/04/30 14:43:46;;;;;;;0.10;0.10;;;;;;;-145.06;66.84;52076.25;11315829;26;20032;-71
2024/04/30 14:48:47;;;;;;;0.00;0.00;;;;;;;-145.06;62.85;52094.47;11315565;26;20014;-70
2024/04/30 14:53:47;;;;;;;0.00;0.00;;;;;;;-145.06;65.96;52062.06;11305903;26;19999;-70
2024/04/30 14:58:47;;;;;;;0.00;0.00;;;;;;;-145.06;69.09;51991.22;11308479;26;20085;-70
2024/04/30 15:03:48;;;;;;;0.00;0.00;;;;;;;-145.06;65.75;52051.94;11320062;26;20005;-71
2024/04/30 15:08:48;;;;;;;0.00;0.00;;;;;;;-145.06;65.02;52106.59;11302138;26;19998;-71
2024/04/30 15:13:49;;;;;;;0.00;0.00;;;;;;;-145.06;63.14;52136.97;11318656;26;20304;-71
2024/04/30 15:18:50;;;;;;;0.10;0.10;;;;;;;-145.06;66.19;52126.84;11304102;26;20013;-71
2024/04/30 15:23:51;;;;;;;0.00;0.00;;;;;;;-145.06;67.80;52094.47;11318113;26;19994;-71
2024/04/30 15:28:52;;;;;;;0.00;0.00;;;;;;;-145.06;65.27;52139.00;11318476;26;19994;-71
2024/04/30 15:33:52;;;;;;;0.00;0.00;;;;;;;-145.06;66.91;52147.09;11319275;26;20020;-71
2024/04/30 15:38:52;;;;;;;0.10;0.10;;;;;;;-145.06;67.54;52165.31;11322131;26;20074;-71
2024/04/30 15:43:52;;;;;;;0.00;0.00;;;;;;;-145.06;69.48;52165.31;11313122;26;20010;-70
2024/04/30 15:48:53;;;;;;;0.00;0.00;;;;;;;-145.06;70.14;52163.28;11325271;26;20420;-71
2024/04/30 15:53:53;;;;;;;0.00;0.00;;;;;;;-145.06;71.66;52147.09;11320734;26;19999;-70
2024/04/30 15:58:57;;;;;;;0.00;0.00;;;;;;;-145.06;71.75;52120.78;11317086;26;20008;-70
2024/04/30 16:03:57;;;;;;;0.00;0.00;;;;;;;-145.06;70.76;52155.19;11300979;26;20304;-65
2024/04/30 16:08:57;;;;;;;0.00;0.00;;;;;;;-145.06;69.88;52159.22;11290970;26;19995;-66
2024/04/30 16:13:58;;;;;;;0.00;0.00;;;;;;;-145.06;70.67;52128.88;11313421;26;20668;-67
2024/04/30 16:18:58;;;;;;;0.10;0.10;;;;;;;-145.06;74.21;52078.25;11299852;26;20418;-66
2024/04/30 16:23:59;;;;;;;0.10;0.10;;;;;;;-145.06;72.32;52134.94;11293768;26;20015;-65
2024/04/30 16:28:59;;;;;;;0.00;0.00;;;;;;;-145.06;72.59;52153.16;11311079;26;20006;-65
2024/04/30 16:33:59;;;;;;;0.00;0.00;;;;;;;-145.06;73.30;52145.06;11301128;26;20371;-65
2024/04/30 16:39:00;;;;;;;0.00;0.00;;;;;;;-145.06;73.73;52163.28;11306309;26;19991;-64
2024/04/30 16:44:00;;;;;;;0.00;0.00;;;;;;;-145.06;75.67;52130.88;11307222;26;20006;-66
2024/04/30 16:49:00;;;;;;;0.00;0.00;;;;;;;-145.06;76.00;52139.00;11312678;26;20002;-65
2024/04/30 16:54:01;;;;;;;0.00;0.00;;;;;;;-145.06;75.54;52145.06;11308340;26;20020;-65
2024/04/30 16:59:01;;;;;;;0.00;0.00;;;;;;;-145.06;76.04;52136.97;11310391;26;20106;-65
2024/04/30 17:04:02;;;;;;;0.00;0.00;;;;;;;-145.06;75.68;52126.84;11306740;26;19995;-65
2024/04/30 17:09:02;;;;;;;0.10;0.10;;;;;;;-145.06;77.12;52149.09;11311976;26;20064;-66
2024/04/30 17:14:02;;;;;;;0.00;0.00;;;;;;;-145.06;78.50;52130.88;11303159;26;20064;-66
2024/04/30 17:19:03;;;;;;;0.00;0.00;;;;;;;-145.06;79.34;52106.59;11307602;26;19995;-67
2024/04/30 17:24:03;;;;;;;0.00;0.00;;;;;;;-145.06;83.60;52086.34;11309603;26;20014;-67
2024/04/30 17:29:03;;;;;;;0.00;0.00;;;;;;;-145.06;81.41;52159.22;11312540;26;20018;-67
2024/04/30 17:34:04;;;;;;;0.00;0.00;;;;;;;-145.06;81.80;52165.31;11303095;26;20002;-66
2024/04/30 17:39:05;;;;;;;0.00;0.00;;;;;;;-145.06;83.70;52153.16;11305790;26;20394;-67
2024/04/30 17:44:05;;;;;;;0.10;0.10;;;;;;;-145.06;86.00;52169.34;11305771;26;19999;-67
2024/04/30 17:49:10;;;;;;;0.00;0.00;;;;;;;-145.06;85.85;52183.53;11301028;26;20010;-67
2024/04/30 17:54:12;;;;;;;0.00;0.00;;;;;;;-145.06;86.50;52224.00;11302293;26;20003;-67
2024/04/30 17:59:13;;;;;;;0.10;0.10;;;;;;;-145.06;88.89;52215.91;11307172;26;20013;-66
2024/04/30 18:04:13;;;;;;;0.10;0.10;;;;;;;-145.06;91.44;52224.00;11297193;26;20474;-67
2024/04/30 18:09:13;;;;;;;0.00;0.00;;;;;;;-145.06;92.67;52258.41;11308474;26;19994;-66
2024/04/30 18:14:14;;;;;;;0.00;0.00;;;;;;;-145.06;93.51;52260.44;11307311;26;20619;-66
2024/04/30 18:19:15;;;;;;;0.10;0.10;;;;;;;-145.06;94.33;52274.63;11300185;26;20059;-66
2024/04/30 18:24:15;;;;;;;0.05;0.05;;;;;;;-145.06;93.47;52296.88;11307643;26;20243;-67
2024/04/30 18:29:16;;;;;;;0.00;0.00;;;;;;;-145.06;94.88;52307.00;11296780;26;19999;-66
2024/04/30 18:34:16;;;;;;;0.00;0.00;;;;;;;-145.06;95.84;52292.84;11301642;26;20006;-66
2024/04/30 18:39:17;;;;;;;0.10;0.10;;;;;;;-145.06;99.16;52292.84;11311007;26;20013;-67
2024/04/30 18:44:17;;;;;;;0.10;0.10;;;;;;;-145.06;100.00;52290.81;11294618;26;20013;-67
2024/04/30 18:49:18;;;;;;;0.00;0.00;;;;;;;-145.06;100.00;52333.31;11319407;26;20220;-67
2024/04/30 18:54:19;;;;;;;0.00;0.00;;;;;;;-145.06;100.00;52311.06;11315683;26;20231;-67
2024/04/30 18:59:19;;;;;;;0.00;0.00;;;;;;;-145.06;100.00;52319.16;11292125;26;19994;-67
2024/04/30 19:04:20;;;;;;;0.10;0.10;;;;;;;-145.06;100.00;52357.63;11300044;26;20069;-67
2024/04/30 19:09:21;;;;;;;0.00;0.00;;;;;;;-145.06;100.00;52343.44;11294702;26;20007;-66
2024/04/30 19:14:21;;;;;;;0.00;0.00;;;;;;;-145.06;100.00;52367.75;11294039;26;20042;-67
2024/04/30 19:19:22;;;;;;;0.10;0.10;;;;;;;-145.06;100.00;52341.41;11299194;26;19995;-67
2024/04/30 19:24:22;;;;;;;0.00;0.00;;;;;;;-145.06;100.00;52317.13;11294666;26;19999;-66
2024/04/30 19:29:22;;;;;;;0.10;0.10;;;;;;;-145.06;100.00;52323.19;11288774;26;20006;-66
2024/04/30 19:34:23;;;;;;;0.10;0.10;;;;;;;-145.06;100.00;52313.06;11301979;26;20436;-66
2024/04/30 19:39:23;;;;;;;0.10;0.10;;;;;;;-145.06;100.00;52333.31;11303075;26;20013;-67
2024/04/30 19:44:23;;;;;;;0.10;0.10;;;;;;;-145.06;100.00;52345.47;11307461;26;20015;-67
2024/04/30 19:49:23;;;;;;;0.00;0.00;;;;;;;-145.06;100.00;52343.44;11288628;26;20448;-66
2024/04/30 19:54:24;;;;;;;0.10;0.10;;;;;;;-145.06;100.00;52345.47;11303668;26;20440;-66
2024/04/30 19:59:24;;;;;;;0.10;0.10;;;;;;;-145.06;100.00;52345.47;11293568;26;20297;-65
2024/04/30 20:04:24;;;;;;;0.10;0.10;;;;;;;-145.06;100.00;52349.50;11311188;26;20464;-65
2024/04/30 20:09:25;;;;;;;0.00;0.00;;;;;;;-145.06;100.00;52369.75;11296718;26;20409;-66
2024/04/30 20:14:25;;;;;;;0.10;0.10;;;;;;;-145.06;100.00;52351.53;11300903;26;19994;-67
2024/04/30 20:19:25;;;;;;;0.10;0.10;;;;;;;-145.06;100.00;52390.00;11304921;26;19998;-68
2024/04/30 20:24:26;;;;;;;0.10;0.10;;;;;;;-145.06;100.00;52369.75;11312571;26;19998;-67
2024/04/30 20:29:27;;;;;;;0.00;0.00;;;;;;;-145.06;100.00;52396.06;11301369;26;20010;-67
2024/04/30 20:34:27;;;;;;;0.10;0.10;;;;;;;-145.06;100.00;52402.16;11289149;26;20003;-67
2024/04/30 20:39:27;;;;;;;0.10;0.10;;;;;;;-145.06;100.00;52365.72;11299579;26;20003;-66
2024/04/30 20:44:28;;;;;;;0.00;0.00;;;;;;;-145.06;100.00;52398.09;11301221;26;20489;-67
2024/04/30 20:49:28;;;;;;;0.10;0.10;;;;;;;-145.06;100.00;52381.91;11309170;26;19999;-69
2024/04/30 20:54:30;;;;;;;0.10;0.10;;;;;;;-145.06;100.00;52385.97;11307497;26;20092;-67
2024/04/30 20:59:30;;;;;;;0.10;0.10;;;;;;;-145.06;100.00;52414.28;11304308;26;19994;-67
2024/04/30 21:04:30;;;;;;;0.10;0.10;;;;;;;-145.06;100.00;52396.06;11299475;26;20335;-68
2024/04/30 21:09:31;;;;;;;0.10;0.10;;;;;;;-145.06;100.00;52410.25;11308196;26;20436;-67
2024/04/30 21:14:31;;;;;;;0.10;0.10;;;;;;;-145.06;100.00;52422.41;11306658;26;20267;-68
2024/04/30 21:19:32;;;;;;;0.10;0.10;;;;;;;-145.06;100.00;52400.13;11294749;26;20003;-68
2024/04/30 21:24:34;;;;;;;0.10;0.10;;;;;;;-145.06;100.00;52418.34;11300681;26;19999;-67
2024/04/30 21:29:35;;;;;;;0.10;0.10;;;;;;;-145.06;100.00;52402.16;11293102;26;20002;-68
2024/04/30 21:34:36;;;;;;;0.10;0.10;;;;;;;-145.06;100.00;52420.38;11296019;26;20009;-68
2024/04/30 21:39:36;;;;;;;0.10;0.10;;;;;;;-145.06;100.00;52446.69;11304856;26;20231;-67
2024/04/30 21:44:37;;;;;;;0.10;0.10;;;;;;;-145.06;100.00;52426.44;11299161;26;20001;-68
2024/04/30 21:49:37;;;;;;;0.10;0.10;;;;;;;-145.06;100.00;52464.91;11305858;26;20079;-68
2024/04/30 21:54:38;;;;;;;0.10;0.10;;;;;;;-145.06;100.00;52446.69;11297171;26;19998;-67
2024/04/30 21:59:38;;;;;;;0.10;0.10;;;;;;;-145.06;100.00;52438.59;11301527;26;20014;-67
2024/04/30 22:04:41;;;;;;;0.10;0.10;;;;;;;-145.06;100.00;52456.81;11309105;26;20002;-67
2024/04/30 22:09:42;;;;;;;0.10;0.10;;;;;;;-145.06;100.00;52420.38;11301218;26;20006;-66
2024/04/30 22:14:42;;;;;;;0.10;0.10;;;;;;;-145.06;100.00;52414.28;11286628;26;20016;-66
2024/04/30 22:19:42;;;;;;;0.10;0.10;;;;;;;-145.06;100.00;52422.41;11302991;26;20444;-67
2024/04/30 22:24:43;;;;;;;0.10;0.10;;;;;;;-145.06;100.00;52426.44;11300560;26;20002;-66
2024/04/30 22:29:43;;;;;;;0.10;0.10;;;;;;;-145.06;100.00;52400.13;11297846;26;20365;-67
2024/04/30 22:34:43;;;;;;;0.10;0.10;;;;;;;-145.06;100.00;52396.06;11298558;26;20010;-67
2024/04/30 22:39:44;;;;;;;0.10;0.10;;;;;;;-145.06;100.00;52367.75;11296632;26;20236;-66
2024/04/30 22:44:44;;;;;;;0.10;0.10;;;;;;;-145.06;100.00;52323.19;11295627;26;20011;-66
2024/04/30 22:49:46;;;;;;;0.10;0.10;;;;;;;-145.06;100.00;52282.72;11290511;26;20060;-67